Log in
NASDAQ:HAS

Hasbro Institutional Ownership

$82.72
-0.47 (-0.56 %)
(As of 10/30/2020 12:00 AM ET)
Add
Compare
Today's Range
$81.69
Now: $82.72
$83.44
50-Day Range
$75.45
MA: $83.13
$92.00
52-Week Range
$41.33
Now: $82.72
$109.50
Volume1.20 million shs
Average Volume1.27 million shs
Market Capitalization$11.33 billion
P/E Ratio28.33
Dividend Yield3.24%
Beta0.91

Institutional Ownership

Institutional Ownership Changes (13F Filings) for Hasbro (NASDAQ:HAS)

Institutional Ownership Percentage: 78.72%

Institutional Buying and Selling by Quarter


Hasbro (NASDAQ HAS) Institutional Buying and Selling

Reporting DateHedge FundShares HeldMarket Value% of PortfolioQuarterly Change in SharesOwnership in Company
10/30/2020Kornitzer Capital Management Inc. KS6,550$0.54M0.0%-53.1%0.005%
10/30/2020BNP Paribas Arbitrage SA107,863$8.92M0.0%+98.4%0.079%
10/30/2020Comerica Bank26,957$2.48M0.0%+6.3%0.020%
10/30/2020BP PLC11,100$0.92M0.0%-7.5%0.008%
10/30/2020Huntington National Bank676$56K0.0%-65.5%0.000%
10/30/2020Lafayette Investments Inc.33,953$2.81M1.1%-3.8%0.025%
10/30/2020Jacobi Capital Management LLC8,284$0.69M0.1%-7.6%0.006%
10/30/2020Steward Partners Investment Advisory LLC3,985$0.33M0.0%+19.7%0.003%
10/30/2020Banque Cantonale Vaudoise4,574$0.38M0.0%+39.7%0.003%
10/30/2020Amalgamated Bank7,222$0.60M0.0%-2.0%0.005%
10/30/2020Toronto Dominion Bank68,717$5.69M0.0%+0.3%0.050%
10/29/2020Beacon Investment Advisory Services Inc.28,821$2.38M0.1%-6.1%0.021%
10/29/2020Keybank National Association OH16,110$1.33M0.0%-2.5%0.012%
10/29/2020Crawford Investment Counsel Inc.4,970$0.41M0.0%-2.5%0.004%
10/29/2020DekaBank Deutsche Girozentrale18,842$1.51M0.0%+57.8%0.014%
10/29/2020Hartford Investment Management Co.13,324$1.10M0.0%-3.5%0.010%
10/29/2020Cambridge Investment Research Advisors Inc.9,766$0.81M0.0%-4.1%0.007%
10/29/2020Robeco Institutional Asset Management B.V.1,541$0.13M0.0%-94.9%0.001%
10/28/2020New Mexico Educational Retirement Board8,209$0.68M0.0%-4.6%0.006%
10/28/2020KBC Group NV272,292$22.53M0.1%+256.0%0.199%
10/27/2020Endurance Wealth Management Inc.91,103$7.54M1.1%+1.9%0.066%
10/27/2020Blue Chip Partners Inc.1,247$0.10M0.0%-98.7%0.001%
10/27/2020New Mexico Educational Retirement Board8,959$1.06M0.0%+4.1%0.007%
10/27/2020State of New Jersey Common Pension Fund D82,589$6.83M0.0%-3.9%0.060%
10/27/2020Psagot Investment House Ltd.1,045$86K0.0%-73.1%0.001%
10/27/2020SVA Wealth Management LLC9,302$0.77M0.1%-8.0%0.007%
10/26/2020CNB Bank8,528$0.71M0.6%+18.5%0.006%
10/26/2020Callahan Advisors LLC20,410$1.69M0.3%+162.7%0.015%
10/26/2020Confluence Wealth Management LLC3,021$0.36M0.2%N/A0.002%
10/23/2020Pinnacle Associates Ltd.61,510$5.09M0.1%+0.5%0.045%
10/23/2020Wealth Advisors of Tampa Bay LLC22,419$1.86M1.4%N/A0.016%
10/23/2020American Trust Investment Advisors LLC35,405$2.93M2.1%+3.1%0.026%
10/23/2020Harbor Investment Advisory LLC510$42K0.0%+3,542.9%0.000%
10/22/2020GW Henssler & Associates Ltd.4,034$0.33M0.0%+3.3%0.003%
10/22/2020NEXT Financial Group Inc5,312$0.44M0.0%N/A0.004%
10/21/2020Country Club Trust Company n.a.37,795$3.13M0.4%-1.5%0.028%
10/21/2020Standard Life Aberdeen plc46,831$3.87M0.0%-11.8%0.034%
10/20/2020Nissay Asset Management Corp Japan ADV13,175$1.09M0.0%+2.6%0.010%
10/20/2020Retirement Systems of Alabama51,361$4.25M0.0%-5.7%0.037%
10/20/2020Nisa Investment Advisors LLC18,270$1.51M0.0%-2.7%0.013%
10/19/2020Pacer Advisors Inc.9,249$0.77M0.0%-14.0%0.007%
10/19/2020Dividend Assets Capital LLC80,709$6.68M1.6%+4.8%0.059%
10/19/2020Louisiana State Employees Retirement System6,500$0.54M0.0%+18.2%0.005%
10/19/2020Foster & Motley Inc.19,933$1.65M0.2%-29.3%0.015%
10/19/2020Aptus Capital Advisors LLC11,145$0.92M0.0%-2.3%0.008%
10/16/2020Cardinal Capital Management55,979$4.63M1.3%+1.1%0.041%
10/16/2020IBM Retirement Fund4,133$0.34M0.0%+39.1%0.003%
10/16/2020Cadence Capital Management LLC3,374$0.28M0.1%-18.2%0.002%
10/16/2020IFM Investors Pty Ltd10,265$0.85M0.0%+10.4%0.007%
10/15/2020Coastline Trust Co12,965$1.07M0.2%+7.5%0.009%
10/15/2020Fortem Financial Group LLC11,266$0.93M0.7%+22.1%0.008%
10/15/2020DAVENPORT & Co LLC2,602$0.22M0.0%N/A0.002%
10/14/2020Raymond James Trust N.A.8,186$0.68M0.0%+20.8%0.006%
10/14/2020Nachman Norwood & Parrott Inc750$62K0.0%N/A0.001%
10/14/2020Avantax Advisory Services Inc.3,184$0.26M0.0%N/A0.002%
10/14/2020DNB Asset Management AS17,217$1.42M0.0%+4.4%0.013%
10/13/2020North Star Investment Management Corp.2,526$0.21M0.0%+165.9%0.002%
10/13/2020Carnegie Capital Asset Management LLC9,045$0.75M0.0%+4.4%0.007%
10/13/2020V Wealth Advisors LLC2,967$0.25M0.2%-31.7%0.002%
10/13/2020Brookstone Capital Management2,864$0.24M0.0%N/A0.002%
10/13/2020JGP Wealth Management LLC10,171$0.86M0.2%+4.0%0.007%
10/13/2020Flagship Harbor Advisors LLC3,187$0.26M0.0%-22.2%0.002%
10/9/2020Capstone Financial Group Inc.3,969$0.33M0.3%+9.5%0.003%
10/9/2020Envestnet Asset Management Inc.77,655$6.42M0.0%+21.3%0.057%
10/8/2020CHICAGO TRUST Co NA12,048$1M0.4%+12.6%0.009%
10/8/2020Cypress Capital Group2,470$0.20M0.0%N/A0.002%
10/5/2020State of Alaska Department of Revenue21,759$1.80M0.0%-4.0%0.016%
9/15/2020Two Sigma Advisers LP134,198$10.06M0.0%-57.4%0.098%
9/11/2020Mitsubishi UFJ Trust & Banking Corp121,336$9.10M0.0%+1.2%0.089%
9/4/2020Principal Financial Group Inc.3,770,539$282.60M0.2%-1.9%2.752%
9/4/2020Ninety One UK Ltd183,878$13.78M0.0%+2.0%0.134%
8/28/2020Toronto Dominion Bank68,531$5.14M0.0%-7.5%0.050%
8/28/2020PNC Financial Services Group Inc.22,342$1.68M0.0%-5.1%0.016%
8/27/2020Neuberger Berman Group LLC44,629$3.34M0.0%-33.4%0.033%
8/26/2020Handelsbanken Fonder AB31,758$2.38M0.0%N/A0.023%
8/24/2020Aurora Investment Counsel17,134$1.28M1.2%-2.7%0.013%
8/24/2020Stephens Inc. AR3,554$0.27M0.0%N/A0.003%
8/24/2020ArrowMark Colorado Holdings LLC10,700$0.80M0.0%N/A0.008%
8/20/2020Charles Schwab Investment Management Inc.1,592,697$119.37M0.1%+46.5%1.162%
8/17/2020AQR Capital Management LLC442,285$32.28M0.1%-56.0%0.323%
8/17/2020Engineers Gate Manager LP2,998$0.23M0.0%N/A0.002%
8/17/2020Great West Life Assurance Co. Can111,010$8.29M0.0%+8.1%0.081%
8/17/2020Wealthsource Partners LLC3,400$0.26M0.0%-33.3%0.002%
8/17/2020Public Employees Retirement System of Ohio47,557$3.56M0.0%-6.5%0.035%
8/17/2020Sei Investments Co.38,807$2.95M0.0%+23.9%0.028%
8/17/2020Albion Financial Group UT36,603$2.74M0.3%-2.6%0.027%
8/17/2020Cigna Investments Inc. New4,088$0.31M0.0%+15.5%0.003%
8/17/2020Private Advisor Group LLC1,359$0.10M0.0%N/A0.001%
8/14/2020Captrust Financial Advisors2,312$0.17M0.0%-30.5%0.002%
8/14/2020BDO Wealth Advisors LLC3,250$0.24M0.0%-6.3%0.002%
8/14/2020Pinnacle Associates Ltd.61,220$4.59M0.1%-1.9%0.045%
8/14/2020Cubist Systematic Strategies LLC17,116$1.28M0.0%+100.8%0.012%
8/14/2020Glenmede Trust Co. NA4,524$0.34M0.0%+24.1%0.003%
8/14/2020Verition Fund Management LLC11,174$0.84M0.0%+148.3%0.008%
8/14/2020Bank of America Corp DE1,223,710$91.72M0.0%+5.6%0.893%
8/14/2020Tudor Investment Corp Et Al7,129$0.53M0.0%N/A0.005%
8/14/2020Channing Capital Management LLC74,515$5.59M0.3%-59.4%0.054%
8/14/2020Deep Field Asset Management LLC29,000$2.17M1.2%N/A0.021%
8/14/2020Holocene Advisors LP31,038$2.33M0.0%-86.9%0.023%
8/14/2020Stifel Financial Corp30,526$2.29M0.0%-65.9%0.022%
(Data available from 1/1/2016 forward)
This page was last updated on 10/31/2020 by MarketBeat.com Staff

Enter your email address below to receive a concise daily summary of analysts' upgrades, downgrades and new coverage with MarketBeat.com's FREE daily email newsletter.